createdAt,value
2022-07-29T00:04:42.881Z,66.62
2022-07-29T00:14:47.733Z,67.21
2022-07-29T00:24:53.238Z,69.11
2022-07-29T00:35:19.997Z,73.20
2022-07-29T00:45:23.346Z,76.13
2022-07-29T00:55:28.717Z,77.61
2022-07-29T01:05:49.966Z,79.07
2022-07-29T01:15:58.504Z,80.34
2022-07-29T01:26:24.484Z,81.81
2022-07-29T01:36:35.517Z,83.14
2022-07-29T01:46:40.000Z,84.61
2022-07-29T01:56:43.896Z,84.86
2022-07-29T02:06:50.831Z,86.13
2022-07-29T02:16:58.019Z,87.67
2022-07-29T02:27:03.672Z,89.29
2022-07-29T02:37:10.760Z,90.88
2022-07-29T02:47:21.850Z,93.41
2022-07-29T02:57:27.527Z,95.84
2022-07-29T03:07:29.919Z,96.97
2022-07-29T03:17:35.107Z,96.53
2022-07-29T03:27:37.227Z,95.02
2022-07-29T03:37:39.296Z,93.27
2022-07-29T03:47:51.132Z,90.32
2022-07-29T03:57:56.709Z,87.36
2022-07-29T04:08:03.751Z,84.60
2022-07-29T04:18:06.941Z,81.92
2022-07-29T04:28:09.579Z,77.43
2022-07-29T04:38:15.590Z,76.79
2022-07-29T04:48:19.287Z,72.46
2022-07-29T04:58:28.493Z,72.16
2022-07-29T05:08:30.604Z,69.87
2022-07-29T05:18:32.577Z,69.87
2022-07-29T05:28:36.172Z,68.72
2022-07-29T05:38:38.555Z,61.12
2022-07-29T05:48:40.736Z,59.08
2022-07-29T05:58:45.435Z,57.26
2022-07-29T06:08:47.530Z,52.87
2022-07-29T06:18:49.611Z,51.89
2022-07-29T06:28:51.794Z,49.97
2022-07-29T06:38:54.052Z,51.53
2022-07-29T06:48:56.183Z,49.85
2022-07-29T06:58:58.486Z,47.03
2022-07-29T07:09:00.482Z,46.00
2022-07-29T07:19:02.619Z,44.16
2022-07-29T07:29:09.449Z,45.48
2022-07-29T07:39:11.668Z,45.71
2022-07-29T07:49:13.854Z,44.62
2022-07-29T07:59:18.474Z,43.42
2022-07-29T08:09:29.156Z,43.54
2022-07-29T08:19:32.244Z,41.58
2022-07-29T08:29:34.313Z,41.75
2022-07-29T08:39:42.495Z,41.85
2022-07-29T08:49:48.312Z,43.52
2022-07-29T08:59:51.487Z,44.04
2022-07-29T09:10:01.751Z,44.41
2022-07-29T09:20:18.315Z,43.25
2022-07-29T09:30:28.298Z,42.00
2022-07-29T09:40:38.529Z,41.32
2022-07-29T09:50:42.479Z,39.96
2022-07-29T10:00:46.982Z,40.05
2022-07-29T10:10:49.329Z,40.78
2022-07-29T10:20:51.830Z,39.86
2022-07-29T10:31:06.998Z,39.34
2022-07-29T10:41:32.027Z,38.79
2022-07-29T10:51:57.534Z,38.56
2022-07-29T11:02:27.681Z,38.32
2022-07-29T11:12:37.332Z,37.13
2022-07-29T11:22:42.968Z,37.22
2022-07-29T11:32:48.956Z,37.93
2022-07-29T11:42:53.513Z,38.94
2022-07-29T11:52:59.425Z,38.60
2022-07-29T12:03:05.222Z,38.62
2022-07-29T12:13:12.460Z,37.68
2022-07-29T12:23:18.858Z,37.11
2022-07-29T12:33:25.991Z,37.26
2022-07-29T12:43:28.136Z,37.60
2022-07-29T12:53:30.315Z,37.81
2022-07-29T13:03:57.626Z,37.03
2022-07-29T13:14:05.672Z,37.64
2022-07-29T13:24:08.458Z,37.36
2022-07-29T13:34:13.706Z,37.39
2022-07-29T13:44:18.010Z,37.25
2022-07-29T13:54:21.825Z,36.87
2022-07-29T14:04:26.705Z,36.78
2022-07-29T14:14:32.771Z,35.94
2022-07-29T14:24:39.513Z,36.03
2022-07-29T14:34:43.892Z,35.90
2022-07-29T14:44:45.957Z,36.19
2022-07-29T14:54:49.579Z,35.84
2022-07-29T15:04:51.639Z,35.69
2022-07-29T15:14:54.146Z,35.67
2022-07-29T15:24:59.000Z,35.91
2022-07-29T15:35:06.002Z,36.13
2022-07-29T15:45:11.120Z,36.02
2022-07-29T15:55:13.210Z,35.75
2022-07-29T16:05:15.297Z,35.83
2022-07-29T16:15:20.359Z,35.57
2022-07-29T16:25:38.364Z,35.79
2022-07-29T16:35:45.509Z,35.31
2022-07-29T16:45:47.701Z,35.66
2022-07-29T16:55:49.741Z,35.50
2022-07-29T17:05:54.257Z,35.55
2022-07-29T17:16:00.253Z,35.19
2022-07-29T17:26:03.665Z,35.16
2022-07-29T17:36:27.034Z,35.51
2022-07-29T17:46:31.568Z,36.67
2022-07-29T17:56:36.186Z,37.34
2022-07-29T18:06:40.377Z,37.98
2022-07-29T18:16:45.362Z,38.23
2022-07-29T18:26:49.908Z,38.84
2022-07-29T18:36:51.950Z,39.24
2022-07-29T18:46:59.052Z,39.58
2022-07-29T18:57:02.499Z,39.83
2022-07-29T19:07:27.106Z,40.48
2022-07-29T19:17:29.147Z,40.78
2022-07-29T19:27:31.686Z,40.89
2022-07-29T19:37:33.785Z,40.67
2022-07-29T19:47:40.474Z,41.34
2022-07-29T19:57:42.714Z,41.80
2022-07-29T20:07:49.930Z,42.09
2022-07-29T20:17:57.366Z,42.64
2022-07-29T20:28:02.035Z,42.80
2022-07-29T20:38:07.204Z,43.46
2022-07-29T20:48:10.684Z,44.35
2022-07-29T20:58:18.076Z,44.71
2022-07-29T21:08:22.750Z,45.45
2022-07-29T21:18:28.266Z,45.82
2022-07-29T21:28:35.937Z,46.34
2022-07-29T21:38:39.357Z,46.48
2022-07-29T21:48:44.547Z,46.93
2022-07-29T21:58:47.986Z,47.34
2022-07-29T22:08:50.123Z,48.17
2022-07-29T22:18:54.650Z,49.07
2022-07-29T22:28:56.629Z,50.06
2022-07-29T22:39:05.847Z,49.34
2022-07-29T22:49:10.351Z,49.31
2022-07-29T22:59:12.411Z,49.02
2022-07-29T23:09:14.424Z,49.23
2022-07-29T23:19:18.530Z,49.14
2022-07-29T23:29:25.195Z,49.25
2022-07-29T23:39:29.459Z,49.67
2022-07-29T23:49:31.562Z,50.57
2022-07-29T23:59:35.947Z,51.16
